IRA305 OIFM-OIII
Flight info
| Callsign | IRA305 |
|---|---|
| Flight time | 0h 40m |
| Altitude | 28000 |
| Route | DAPOG R659 BOXAM |
| Aircraft | A320/M-SDE3FGHIRWY/LB1 |
Departure
| Time | 2026-05-09 17:50 |
|---|---|
| Airport | Isfahan Shahid Beheshti International Airport (OIFM) |
Arrival
| Time | 2026-05-09 18:31 |
|---|---|
| Airport | Mehrabad International Airport (OIII) |
| Time | Latitude | Longitude | Altitude | Speed | Heading |
|---|---|---|---|---|---|
| 2026-05-09 17:28 | 32.74762 | 51.86930 | 5071 ft | 0 kts | 348° |
| 2026-05-09 17:39 | 32.74743 | 51.86935 | 5071 ft | 4 kts | 343° |
| 2026-05-09 17:39 | 32.74718 | 51.86946 | 5071 ft | 4 kts | 331° |
| 2026-05-09 17:40 | 32.74697 | 51.86965 | 5071 ft | 4 kts | 297° |
| 2026-05-09 17:40 | 32.74694 | 51.86983 | 5071 ft | 1 kts | 258° |
| 2026-05-09 17:40 | 32.74694 | 51.86987 | 5071 ft | 2 kts | 258° |
| 2026-05-09 17:42 | 32.74691 | 51.86969 | 5071 ft | 7 kts | 258° |
| 2026-05-09 17:43 | 32.74681 | 51.86915 | 5071 ft | 6 kts | 258° |
| 2026-05-09 17:43 | 32.74711 | 51.86887 | 5071 ft | 12 kts | 354° |
| 2026-05-09 17:43 | 32.74826 | 51.86843 | 5071 ft | 20 kts | 347° |
| 2026-05-09 17:43 | 32.74962 | 51.86796 | 5070 ft | 19 kts | 322° |
| 2026-05-09 17:44 | 32.74961 | 51.86678 | 5069 ft | 15 kts | 258° |
| 2026-05-09 17:44 | 32.74940 | 51.86548 | 5069 ft | 17 kts | 259° |
| 2026-05-09 17:44 | 32.74917 | 51.86411 | 5069 ft | 17 kts | 259° |
| 2026-05-09 17:44 | 32.74894 | 51.86266 | 5069 ft | 18 kts | 259° |
| 2026-05-09 17:45 | 32.74872 | 51.86114 | 5070 ft | 19 kts | 260° |
| 2026-05-09 17:45 | 32.74841 | 51.85961 | 5071 ft | 20 kts | 255° |
| 2026-05-09 17:45 | 32.74806 | 51.85797 | 5069 ft | 21 kts | 256° |
| 2026-05-09 17:45 | 32.74771 | 51.85621 | 5070 ft | 22 kts | 257° |
| 2026-05-09 17:46 | 32.74737 | 51.85439 | 5069 ft | 23 kts | 257° |
| 2026-05-09 17:46 | 32.74703 | 51.85249 | 5070 ft | 24 kts | 258° |
| 2026-05-09 17:46 | 32.74682 | 51.85121 | 5070 ft | 24 kts | 259° |
| 2026-05-09 17:46 | 32.74652 | 51.84922 | 5071 ft | 24 kts | 260° |
| 2026-05-09 17:47 | 32.74616 | 51.84727 | 5073 ft | 24 kts | 256° |
| 2026-05-09 17:47 | 32.74575 | 51.84524 | 5071 ft | 26 kts | 257° |
| 2026-05-09 17:47 | 32.74537 | 51.84312 | 5071 ft | 27 kts | 258° |
| 2026-05-09 17:47 | 32.74502 | 51.84090 | 5069 ft | 28 kts | 260° |
| 2026-05-09 17:48 | 32.74479 | 51.83877 | 5068 ft | 12 kts | 290° |
| 2026-05-09 17:48 | 32.74538 | 51.83861 | 5068 ft | 5 kts | 58° |
| 2026-05-09 17:48 | 32.74525 | 51.83876 | 5068 ft | 2 kts | 140° |
| 2026-05-09 17:48 | 32.74513 | 51.83888 | 5068 ft | 2 kts | 140° |
| 2026-05-09 17:49 | 32.74503 | 51.83898 | 5068 ft | 2 kts | 140° |
| 2026-05-09 17:49 | 32.74494 | 51.83907 | 5068 ft | 2 kts | 140° |
| 2026-05-09 17:49 | 32.74486 | 51.83915 | 5068 ft | 1 kts | 140° |
| 2026-05-09 17:49 | 32.74486 | 51.83938 | 5068 ft | 8 kts | 92° |
| 2026-05-09 17:50 | 32.74526 | 51.84161 | 5069 ft | 48 kts | 76° |
| 2026-05-09 17:50 | 32.74873 | 51.86047 | 5072 ft | 180 kts | 76° |
| 2026-05-09 17:50 | 32.75209 | 51.87554 | 5805 ft | 186 kts | 70° |
| 2026-05-09 17:51 | 32.75643 | 51.89049 | 6468 ft | 197 kts | 62° |
| 2026-05-09 17:51 | 32.76482 | 51.90223 | 6964 ft | 186 kts | 23° |
| 2026-05-09 17:51 | 32.77643 | 51.91041 | 7108 ft | 208 kts | 39° |
| 2026-05-09 17:51 | 32.78333 | 51.92634 | 7257 ft | 234 kts | 84° |
| 2026-05-09 17:52 | 32.77977 | 51.94574 | 7394 ft | 255 kts | 126° |
| 2026-05-09 17:52 | 32.76619 | 51.95951 | 7614 ft | 267 kts | 163° |
| 2026-05-09 17:52 | 32.74755 | 51.96222 | 7914 ft | 280 kts | 187° |
| 2026-05-09 17:52 | 32.72769 | 51.96362 | 8500 ft | 295 kts | 166° |
| 2026-05-09 17:53 | 32.71002 | 51.97652 | 9193 ft | 307 kts | 132° |
| 2026-05-09 17:53 | 32.70010 | 51.99878 | 9968 ft | 309 kts | 100° |
| 2026-05-09 17:53 | 32.70093 | 52.02395 | 10686 ft | 308 kts | 69° |
| 2026-05-09 17:53 | 32.71203 | 52.04581 | 11061 ft | 320 kts | 41° |
| 2026-05-09 17:54 | 32.73104 | 52.06041 | 11371 ft | 333 kts | 20° |
| 2026-05-09 17:54 | 32.75333 | 52.06872 | 11963 ft | 339 kts | 14° |
| 2026-05-09 17:54 | 32.77608 | 52.07712 | 12687 ft | 344 kts | 15° |
| 2026-05-09 17:54 | 32.79900 | 52.08588 | 13404 ft | 349 kts | 17° |
| 2026-05-09 17:55 | 32.82226 | 52.09480 | 14116 ft | 353 kts | 17° |
| 2026-05-09 17:55 | 32.84583 | 52.10372 | 14747 ft | 358 kts | 16° |
| 2026-05-09 17:55 | 32.86943 | 52.11252 | 15374 ft | 363 kts | 15° |
| 2026-05-09 17:55 | 32.89371 | 52.12146 | 16026 ft | 367 kts | 15° |
| 2026-05-09 17:56 | 32.91831 | 52.13043 | 16681 ft | 372 kts | 14° |
| 2026-05-09 17:56 | 32.94329 | 52.13949 | 17258 ft | 379 kts | 14° |
| 2026-05-09 17:56 | 32.96869 | 52.14867 | 17860 ft | 384 kts | 14° |
| 2026-05-09 17:57 | 33.02051 | 52.16751 | 19008 ft | 394 kts | 13° |
| 2026-05-09 17:57 | 33.04685 | 52.17716 | 19560 ft | 398 kts | 13° |
| 2026-05-09 17:57 | 33.07341 | 52.18690 | 20121 ft | 401 kts | 13° |
| 2026-05-09 17:57 | 33.10019 | 52.19674 | 20696 ft | 404 kts | 13° |
| 2026-05-09 17:58 | 33.12718 | 52.20668 | 21277 ft | 407 kts | 13° |
| 2026-05-09 17:58 | 33.15437 | 52.21670 | 21836 ft | 410 kts | 12° |
| 2026-05-09 17:58 | 33.18175 | 52.22674 | 22376 ft | 414 kts | 12° |
| 2026-05-09 17:58 | 33.20939 | 52.23689 | 22917 ft | 417 kts | 12° |
| 2026-05-09 17:59 | 33.23730 | 52.24712 | 23493 ft | 421 kts | 12° |
| 2026-05-09 17:59 | 33.26538 | 52.25743 | 23960 ft | 424 kts | 11° |
| 2026-05-09 17:59 | 33.29365 | 52.26784 | 24413 ft | 426 kts | 11° |
| 2026-05-09 17:59 | 33.32201 | 52.27830 | 24839 ft | 428 kts | 11° |
| 2026-05-09 18:00 | 33.35056 | 52.28886 | 25262 ft | 430 kts | 11° |
| 2026-05-09 18:00 | 33.37918 | 52.29944 | 25670 ft | 432 kts | 11° |
| 2026-05-09 18:00 | 33.40792 | 52.31006 | 26084 ft | 434 kts | 11° |
| 2026-05-09 18:00 | 33.43687 | 52.32071 | 26462 ft | 436 kts | 11° |
| 2026-05-09 18:01 | 33.46596 | 52.33142 | 26820 ft | 439 kts | 10° |
| 2026-05-09 18:01 | 33.49524 | 52.34224 | 27196 ft | 441 kts | 10° |
| 2026-05-09 18:01 | 33.52467 | 52.35310 | 27570 ft | 444 kts | 10° |
| 2026-05-09 18:01 | 33.55422 | 52.36400 | 27914 ft | 446 kts | 10° |
| 2026-05-09 18:02 | 33.58398 | 52.37436 | 28042 ft | 440 kts | 5° |
| 2026-05-09 18:02 | 33.61333 | 52.37914 | 28067 ft | 413 kts | 354° |
| 2026-05-09 18:02 | 33.64131 | 52.37762 | 28098 ft | 396 kts | 343° |
| 2026-05-09 18:02 | 33.66778 | 52.37060 | 28057 ft | 384 kts | 334° |
| 2026-05-09 18:03 | 33.69236 | 52.35894 | 28060 ft | 378 kts | 328° |
| 2026-05-09 18:03 | 33.74050 | 52.33361 | 28057 ft | 378 kts | 329° |
| 2026-05-09 18:04 | 33.78875 | 52.30843 | 28054 ft | 378 kts | 329° |
| 2026-05-09 18:04 | 33.83692 | 52.28319 | 28074 ft | 377 kts | 329° |
| 2026-05-09 18:05 | 33.88506 | 52.25796 | 28068 ft | 377 kts | 329° |
| 2026-05-09 18:05 | 33.93306 | 52.23279 | 28054 ft | 376 kts | 329° |
| 2026-05-09 18:06 | 33.98104 | 52.20758 | 28049 ft | 376 kts | 329° |
| 2026-05-09 18:06 | 34.02856 | 52.18249 | 28052 ft | 376 kts | 329° |
| 2026-05-09 18:07 | 34.07683 | 52.15699 | 28041 ft | 376 kts | 329° |
| 2026-05-09 18:07 | 34.12479 | 52.13169 | 28036 ft | 376 kts | 329° |
| 2026-05-09 18:08 | 34.17275 | 52.10636 | 28048 ft | 376 kts | 329° |
| 2026-05-09 18:08 | 34.22083 | 52.08095 | 28030 ft | 378 kts | 329° |
| 2026-05-09 18:09 | 34.26898 | 52.05539 | 28010 ft | 378 kts | 329° |
| 2026-05-09 18:09 | 34.29308 | 52.04259 | 27988 ft | 379 kts | 329° |
| 2026-05-09 18:09 | 34.31721 | 52.02979 | 27993 ft | 379 kts | 329° |
| 2026-05-09 18:10 | 34.36547 | 52.00419 | 28016 ft | 379 kts | 329° |
| 2026-05-09 18:10 | 34.41381 | 51.97846 | 28018 ft | 380 kts | 329° |
| 2026-05-09 18:11 | 34.46225 | 51.95270 | 28016 ft | 380 kts | 329° |
| 2026-05-09 18:11 | 34.51053 | 51.92700 | 27833 ft | 375 kts | 329° |
| 2026-05-09 18:11 | 34.53420 | 51.91441 | 27520 ft | 368 kts | 329° |
| 2026-05-09 18:12 | 34.55757 | 51.90198 | 27132 ft | 365 kts | 330° |
| 2026-05-09 18:12 | 34.58070 | 51.88966 | 26761 ft | 362 kts | 330° |
| 2026-05-09 18:12 | 34.60372 | 51.87737 | 26389 ft | 360 kts | 330° |
| 2026-05-09 18:12 | 34.62656 | 51.86514 | 26018 ft | 358 kts | 330° |
| 2026-05-09 18:13 | 34.64914 | 51.85255 | 25655 ft | 356 kts | 328° |
| 2026-05-09 18:13 | 34.67128 | 51.83935 | 25298 ft | 354 kts | 327° |
| 2026-05-09 18:13 | 34.69290 | 51.82603 | 24957 ft | 352 kts | 327° |
| 2026-05-09 18:13 | 34.71463 | 51.81245 | 24608 ft | 351 kts | 327° |
| 2026-05-09 18:14 | 34.73628 | 51.79895 | 24277 ft | 348 kts | 327° |
| 2026-05-09 18:14 | 34.75782 | 51.78568 | 23928 ft | 346 kts | 327° |
| 2026-05-09 18:14 | 34.77931 | 51.77254 | 23587 ft | 345 kts | 328° |
| 2026-05-09 18:14 | 34.80071 | 51.75949 | 23187 ft | 343 kts | 328° |
| 2026-05-09 18:15 | 34.82202 | 51.74655 | 22788 ft | 342 kts | 328° |
| 2026-05-09 18:15 | 34.84323 | 51.73365 | 22394 ft | 340 kts | 327° |
| 2026-05-09 18:15 | 34.86427 | 51.72082 | 22020 ft | 338 kts | 327° |
| 2026-05-09 18:15 | 34.88301 | 51.70938 | 21675 ft | 336 kts | 327° |
| 2026-05-09 18:16 | 34.90381 | 51.69666 | 21296 ft | 334 kts | 327° |
| 2026-05-09 18:16 | 34.92450 | 51.68401 | 20921 ft | 332 kts | 327° |
| 2026-05-09 18:16 | 34.94509 | 51.67144 | 20552 ft | 330 kts | 327° |
| 2026-05-09 18:16 | 34.96556 | 51.65892 | 20178 ft | 328 kts | 327° |
| 2026-05-09 18:17 | 34.98595 | 51.64646 | 19821 ft | 327 kts | 327° |
| 2026-05-09 18:17 | 35.00617 | 51.63410 | 19464 ft | 324 kts | 327° |
| 2026-05-09 18:17 | 35.02624 | 51.62181 | 19124 ft | 322 kts | 327° |
| 2026-05-09 18:17 | 35.04623 | 51.60957 | 18783 ft | 320 kts | 327° |
| 2026-05-09 18:18 | 35.06619 | 51.59764 | 18437 ft | 321 kts | 331° |
| 2026-05-09 18:18 | 35.08793 | 51.59025 | 18057 ft | 329 kts | 346° |
| 2026-05-09 18:18 | 35.11093 | 51.58876 | 17660 ft | 331 kts | 352° |
| 2026-05-09 18:18 | 35.13387 | 51.58808 | 17271 ft | 330 kts | 352° |
| 2026-05-09 18:19 | 35.15677 | 51.58739 | 16885 ft | 328 kts | 352° |
| 2026-05-09 18:19 | 35.20222 | 51.58595 | 16139 ft | 326 kts | 352° |
| 2026-05-09 18:19 | 35.22484 | 51.58519 | 15770 ft | 325 kts | 352° |
| 2026-05-09 18:20 | 35.24738 | 51.58442 | 15395 ft | 320 kts | 352° |
| 2026-05-09 18:20 | 35.26929 | 51.58374 | 15033 ft | 309 kts | 353° |
| 2026-05-09 18:20 | 35.29052 | 51.58312 | 14678 ft | 303 kts | 353° |
| 2026-05-09 18:20 | 35.31144 | 51.58249 | 14331 ft | 297 kts | 353° |
| 2026-05-09 18:21 | 35.33183 | 51.58187 | 13975 ft | 289 kts | 352° |
| 2026-05-09 18:21 | 35.35165 | 51.58127 | 13604 ft | 282 kts | 352° |
| 2026-05-09 18:21 | 35.37097 | 51.58068 | 13215 ft | 274 kts | 352° |
| 2026-05-09 18:21 | 35.38982 | 51.58006 | 12848 ft | 267 kts | 352° |
| 2026-05-09 18:22 | 35.40809 | 51.57943 | 12459 ft | 259 kts | 351° |
| 2026-05-09 18:22 | 35.42588 | 51.57880 | 12092 ft | 253 kts | 351° |
| 2026-05-09 18:22 | 35.44325 | 51.57822 | 11724 ft | 247 kts | 351° |
| 2026-05-09 18:22 | 35.46020 | 51.57767 | 11350 ft | 241 kts | 351° |
| 2026-05-09 18:23 | 35.47678 | 51.57711 | 11000 ft | 236 kts | 351° |
| 2026-05-09 18:23 | 35.49298 | 51.57657 | 10643 ft | 231 kts | 351° |
| 2026-05-09 18:23 | 35.50888 | 51.57605 | 10288 ft | 226 kts | 351° |
| 2026-05-09 18:23 | 35.52445 | 51.57552 | 9940 ft | 221 kts | 351° |
| 2026-05-09 18:24 | 35.53952 | 51.57504 | 9621 ft | 212 kts | 351° |
| 2026-05-09 18:24 | 35.55379 | 51.57462 | 9338 ft | 198 kts | 351° |
| 2026-05-09 18:24 | 35.56711 | 51.57422 | 9090 ft | 185 kts | 351° |
| 2026-05-09 18:25 | 35.59163 | 51.57335 | 8596 ft | 170 kts | 348° |
| 2026-05-09 18:25 | 35.60263 | 51.56987 | 8344 ft | 160 kts | 328° |
| 2026-05-09 18:25 | 35.61158 | 51.56250 | 8140 ft | 151 kts | 313° |
| 2026-05-09 18:25 | 35.61710 | 51.55207 | 7831 ft | 146 kts | 293° |
| 2026-05-09 18:26 | 35.62106 | 51.54075 | 7564 ft | 143 kts | 293° |
| 2026-05-09 18:26 | 35.62472 | 51.52941 | 7342 ft | 142 kts | 292° |
| 2026-05-09 18:26 | 35.62821 | 51.51808 | 7133 ft | 142 kts | 292° |
| 2026-05-09 18:26 | 35.63162 | 51.50671 | 6935 ft | 142 kts | 292° |
| 2026-05-09 18:27 | 35.63500 | 51.49534 | 6741 ft | 142 kts | 293° |
| 2026-05-09 18:27 | 35.63722 | 51.48780 | 6615 ft | 142 kts | 293° |
| 2026-05-09 18:27 | 35.64166 | 51.47275 | 6355 ft | 143 kts | 293° |
| 2026-05-09 18:27 | 35.64505 | 51.46119 | 6146 ft | 141 kts | 293° |
| 2026-05-09 18:28 | 35.64839 | 51.44983 | 5947 ft | 141 kts | 293° |
| 2026-05-09 18:28 | 35.65172 | 51.43847 | 5743 ft | 141 kts | 293° |
| 2026-05-09 18:28 | 35.65501 | 51.42724 | 5545 ft | 142 kts | 293° |
| 2026-05-09 18:28 | 35.65837 | 51.41580 | 5346 ft | 142 kts | 292° |
| 2026-05-09 18:29 | 35.66172 | 51.40436 | 5146 ft | 142 kts | 292° |
| 2026-05-09 18:29 | 35.66507 | 51.39291 | 4948 ft | 143 kts | 292° |
| 2026-05-09 18:29 | 35.66733 | 51.38520 | 4812 ft | 146 kts | 293° |
| 2026-05-09 18:29 | 35.67195 | 51.36940 | 4527 ft | 147 kts | 292° |
| 2026-05-09 18:30 | 35.67534 | 51.35782 | 4312 ft | 147 kts | 291° |
| 2026-05-09 18:30 | 35.67872 | 51.34613 | 4117 ft | 144 kts | 290° |
| 2026-05-09 18:30 | 35.68206 | 51.33463 | 3930 ft | 142 kts | 291° |
| 2026-05-09 18:30 | 35.68539 | 51.32355 | 3845 ft | 128 kts | 291° |
| 2026-05-09 18:31 | 35.68773 | 51.31595 | 3868 ft | 34 kts | 290° |
| 2026-05-09 18:31 | 35.68858 | 51.31475 | 3875 ft | 10 kts | 29° |
| 2026-05-09 18:31 | 35.68888 | 51.31482 | 3880 ft | 0 kts | 5° |
| 2026-05-09 18:31 | 35.68915 | 51.31485 | 3884 ft | 11 kts | 5° |
| 2026-05-09 18:32 | 35.68969 | 51.31490 | 3891 ft | 12 kts | 4° |
| 2026-05-09 18:32 | 35.69068 | 51.31522 | 3898 ft | 15 kts | 57° |
| 2026-05-09 18:32 | 35.69037 | 51.31708 | 3891 ft | 31 kts | 118° |
| 2026-05-09 18:32 | 35.69054 | 51.31872 | 3890 ft | 11 kts | 50° |
| 2026-05-09 18:33 | 35.69072 | 51.31899 | 3890 ft | 0 kts | 49° |